DAL69 KSAN-KLAX
Flight info
| Callsign | DAL69 |
|---|---|
| Flight time | 0h 28m |
| Altitude | 10000 |
| Route | CWARD2 SLI |
| Aircraft | A320/M-SDE3FGHIRWY/LB1 |
Departure
| Time | 2026-04-25 20:19 |
|---|---|
| Airport | San Diego International Airport (KSAN) |
Arrival
| Time | 2026-04-25 20:48 |
|---|---|
| Airport | Los Angeles International Airport (KLAX) |
| Time | Latitude | Longitude | Altitude | Speed | Heading |
|---|---|---|---|---|---|
| 2026-04-25 19:57 | 32.73345 | -117.20464 | 25 ft | 0 kts | 85° |
| 2026-04-25 20:09 | 32.73345 | -117.20465 | 32 ft | 1 kts | 85° |
| 2026-04-25 20:09 | 32.73344 | -117.20484 | 23 ft | 3 kts | 85° |
| 2026-04-25 20:09 | 32.73342 | -117.20508 | 23 ft | 3 kts | 85° |
| 2026-04-25 20:09 | 32.73340 | -117.20532 | 23 ft | 3 kts | 86° |
| 2026-04-25 20:10 | 32.73339 | -117.20555 | 23 ft | 3 kts | 88° |
| 2026-04-25 20:10 | 32.73339 | -117.20565 | 23 ft | 0 kts | 89° |
| 2026-04-25 20:13 | 32.73343 | -117.20559 | 23 ft | 1 kts | 51° |
| 2026-04-25 20:13 | 32.73361 | -117.20559 | 23 ft | 4 kts | 359° |
| 2026-04-25 20:13 | 32.73409 | -117.20560 | 23 ft | 11 kts | 0° |
| 2026-04-25 20:14 | 32.73524 | -117.20503 | 24 ft | 20 kts | 50° |
| 2026-04-25 20:14 | 32.73585 | -117.20365 | 23 ft | 18 kts | 90° |
| 2026-04-25 20:14 | 32.73557 | -117.20227 | 24 ft | 17 kts | 107° |
| 2026-04-25 20:14 | 32.73526 | -117.20099 | 24 ft | 17 kts | 106° |
| 2026-04-25 20:15 | 32.73475 | -117.19887 | 23 ft | 30 kts | 105° |
| 2026-04-25 20:15 | 32.73417 | -117.19649 | 25 ft | 28 kts | 106° |
| 2026-04-25 20:15 | 32.73362 | -117.19417 | 23 ft | 30 kts | 106° |
| 2026-04-25 20:15 | 32.73301 | -117.19169 | 24 ft | 32 kts | 106° |
| 2026-04-25 20:16 | 32.73241 | -117.18922 | 24 ft | 31 kts | 106° |
| 2026-04-25 20:16 | 32.73180 | -117.18664 | 23 ft | 33 kts | 105° |
| 2026-04-25 20:16 | 32.73120 | -117.18422 | 23 ft | 30 kts | 107° |
| 2026-04-25 20:16 | 32.73061 | -117.18178 | 22 ft | 32 kts | 106° |
| 2026-04-25 20:17 | 32.73003 | -117.17936 | 23 ft | 28 kts | 106° |
| 2026-04-25 20:17 | 32.72955 | -117.17757 | 23 ft | 11 kts | 108° |
| 2026-04-25 20:17 | 32.72955 | -117.17678 | 23 ft | 0 kts | 75° |
| 2026-04-25 20:18 | 32.72957 | -117.17670 | 23 ft | 7 kts | 75° |
| 2026-04-25 20:18 | 32.73039 | -117.17671 | 23 ft | 24 kts | 298° |
| 2026-04-25 20:18 | 32.73150 | -117.18111 | 24 ft | 92 kts | 286° |
| 2026-04-25 20:19 | 32.73384 | -117.19083 | 44 ft | 148 kts | 285° |
| 2026-04-25 20:19 | 32.73696 | -117.20328 | 582 ft | 160 kts | 286° |
| 2026-04-25 20:19 | 32.74146 | -117.21519 | 1458 ft | 160 kts | 299° |
| 2026-04-25 20:19 | 32.74762 | -117.22655 | 2158 ft | 171 kts | 301° |
| 2026-04-25 20:20 | 32.75472 | -117.23901 | 2574 ft | 193 kts | 302° |
| 2026-04-25 20:20 | 32.76277 | -117.25315 | 3019 ft | 219 kts | 302° |
| 2026-04-25 20:20 | 32.77177 | -117.26915 | 3625 ft | 244 kts | 302° |
| 2026-04-25 20:20 | 32.78146 | -117.28644 | 4447 ft | 256 kts | 302° |
| 2026-04-25 20:21 | 32.79129 | -117.30400 | 5466 ft | 260 kts | 302° |
| 2026-04-25 20:21 | 32.80158 | -117.32213 | 6416 ft | 266 kts | 304° |
| 2026-04-25 20:21 | 32.81275 | -117.34015 | 7306 ft | 272 kts | 305° |
| 2026-04-25 20:21 | 32.82439 | -117.35808 | 8225 ft | 276 kts | 304° |
| 2026-04-25 20:22 | 32.83632 | -117.37620 | 9168 ft | 279 kts | 303° |
| 2026-04-25 20:22 | 32.84023 | -117.38214 | 9457 ft | 282 kts | 303° |
| 2026-04-25 20:22 | 32.86041 | -117.41300 | 9948 ft | 284 kts | 302° |
| 2026-04-25 20:22 | 32.87248 | -117.43158 | 9987 ft | 282 kts | 302° |
| 2026-04-25 20:23 | 32.88448 | -117.45015 | 9990 ft | 282 kts | 302° |
| 2026-04-25 20:23 | 32.89643 | -117.46871 | 9990 ft | 282 kts | 302° |
| 2026-04-25 20:23 | 32.90825 | -117.48702 | 9990 ft | 282 kts | 302° |
| 2026-04-25 20:23 | 32.92021 | -117.50558 | 9990 ft | 282 kts | 302° |
| 2026-04-25 20:24 | 32.93218 | -117.52421 | 9982 ft | 282 kts | 302° |
| 2026-04-25 20:24 | 32.94413 | -117.54285 | 9989 ft | 282 kts | 302° |
| 2026-04-25 20:24 | 32.95610 | -117.56148 | 9984 ft | 283 kts | 302° |
| 2026-04-25 20:24 | 32.96793 | -117.57989 | 9989 ft | 283 kts | 302° |
| 2026-04-25 20:25 | 32.97989 | -117.59853 | 9989 ft | 283 kts | 302° |
| 2026-04-25 20:25 | 32.99181 | -117.61715 | 9986 ft | 283 kts | 302° |
| 2026-04-25 20:25 | 33.00373 | -117.63583 | 9981 ft | 283 kts | 302° |
| 2026-04-25 20:25 | 33.01552 | -117.65429 | 9988 ft | 283 kts | 302° |
| 2026-04-25 20:26 | 33.02753 | -117.67303 | 9991 ft | 283 kts | 302° |
| 2026-04-25 20:26 | 33.03951 | -117.69169 | 9985 ft | 283 kts | 302° |
| 2026-04-25 20:26 | 33.04746 | -117.70409 | 9985 ft | 284 kts | 302° |
| 2026-04-25 20:26 | 33.05949 | -117.72279 | 9987 ft | 284 kts | 304° |
| 2026-04-25 20:27 | 33.07366 | -117.73959 | 9985 ft | 289 kts | 314° |
| 2026-04-25 20:27 | 33.08909 | -117.75517 | 9973 ft | 289 kts | 314° |
| 2026-04-25 20:27 | 33.10426 | -117.77053 | 9973 ft | 290 kts | 314° |
| 2026-04-25 20:27 | 33.11966 | -117.78615 | 9970 ft | 290 kts | 314° |
| 2026-04-25 20:28 | 33.13499 | -117.80173 | 9977 ft | 290 kts | 314° |
| 2026-04-25 20:28 | 33.15034 | -117.81735 | 9972 ft | 290 kts | 314° |
| 2026-04-25 20:28 | 33.16555 | -117.83286 | 9969 ft | 290 kts | 314° |
| 2026-04-25 20:28 | 33.18098 | -117.84850 | 9976 ft | 291 kts | 317° |
| 2026-04-25 20:29 | 33.19855 | -117.86109 | 9974 ft | 297 kts | 332° |
| 2026-04-25 20:29 | 33.21843 | -117.86823 | 9830 ft | 301 kts | 344° |
| 2026-04-25 20:29 | 33.23873 | -117.87316 | 9700 ft | 301 kts | 344° |
| 2026-04-25 20:29 | 33.25920 | -117.87818 | 9568 ft | 300 kts | 344° |
| 2026-04-25 20:30 | 33.27965 | -117.88323 | 9433 ft | 299 kts | 344° |
| 2026-04-25 20:30 | 33.30000 | -117.88826 | 9301 ft | 297 kts | 344° |
| 2026-04-25 20:30 | 33.32031 | -117.89330 | 9165 ft | 296 kts | 344° |
| 2026-04-25 20:30 | 33.34025 | -117.89827 | 9043 ft | 296 kts | 344° |
| 2026-04-25 20:31 | 33.36034 | -117.90328 | 8883 ft | 294 kts | 345° |
| 2026-04-25 20:31 | 33.38029 | -117.90825 | 8492 ft | 291 kts | 344° |
| 2026-04-25 20:31 | 33.39957 | -117.91480 | 8102 ft | 286 kts | 340° |
| 2026-04-25 20:31 | 33.41860 | -117.92174 | 7732 ft | 284 kts | 340° |
| 2026-04-25 20:32 | 33.43723 | -117.92849 | 7364 ft | 281 kts | 340° |
| 2026-04-25 20:32 | 33.45581 | -117.93524 | 7047 ft | 277 kts | 339° |
| 2026-04-25 20:32 | 33.47428 | -117.94196 | 7006 ft | 277 kts | 340° |
| 2026-04-25 20:32 | 33.49285 | -117.94874 | 7011 ft | 277 kts | 340° |
| 2026-04-25 20:33 | 33.51118 | -117.95543 | 7009 ft | 278 kts | 340° |
| 2026-04-25 20:33 | 33.52972 | -117.96217 | 7009 ft | 277 kts | 340° |
| 2026-04-25 20:33 | 33.54824 | -117.96891 | 7010 ft | 277 kts | 340° |
| 2026-04-25 20:33 | 33.56047 | -117.97336 | 7009 ft | 278 kts | 340° |
| 2026-04-25 20:34 | 33.58505 | -117.98231 | 7009 ft | 278 kts | 339° |
| 2026-04-25 20:34 | 33.60360 | -117.98906 | 7009 ft | 278 kts | 340° |
| 2026-04-25 20:34 | 33.62217 | -117.99581 | 7009 ft | 278 kts | 340° |
| 2026-04-25 20:34 | 33.64067 | -118.00254 | 7009 ft | 278 kts | 340° |
| 2026-04-25 20:35 | 33.65899 | -118.00924 | 7011 ft | 278 kts | 340° |
| 2026-04-25 20:35 | 33.67757 | -118.01604 | 7007 ft | 279 kts | 340° |
| 2026-04-25 20:35 | 33.69612 | -118.02282 | 7006 ft | 279 kts | 341° |
| 2026-04-25 20:35 | 33.71473 | -118.02960 | 7004 ft | 279 kts | 340° |
| 2026-04-25 20:36 | 33.73341 | -118.03642 | 7007 ft | 279 kts | 341° |
| 2026-04-25 20:36 | 33.75202 | -118.04322 | 6971 ft | 279 kts | 340° |
| 2026-04-25 20:36 | 33.77062 | -118.05005 | 6969 ft | 279 kts | 340° |
| 2026-04-25 20:36 | 33.78899 | -118.05683 | 6970 ft | 279 kts | 340° |
| 2026-04-25 20:37 | 33.80771 | -118.06347 | 6974 ft | 280 kts | 341° |
| 2026-04-25 20:37 | 33.82646 | -118.06992 | 6973 ft | 279 kts | 341° |
| 2026-04-25 20:37 | 33.84520 | -118.07643 | 6975 ft | 279 kts | 343° |
| 2026-04-25 20:37 | 33.86441 | -118.07779 | 6970 ft | 285 kts | 8° |
| 2026-04-25 20:38 | 33.88266 | -118.06892 | 6710 ft | 285 kts | 35° |
| 2026-04-25 20:38 | 33.89589 | -118.05138 | 6348 ft | 282 kts | 58° |
| 2026-04-25 20:38 | 33.90579 | -118.03110 | 5949 ft | 277 kts | 61° |
| 2026-04-25 20:38 | 33.91509 | -118.01117 | 5255 ft | 275 kts | 61° |
| 2026-04-25 20:39 | 33.92449 | -117.99107 | 4695 ft | 275 kts | 61° |
| 2026-04-25 20:39 | 33.93377 | -117.97136 | 4537 ft | 264 kts | 61° |
| 2026-04-25 20:39 | 33.94460 | -117.95424 | 4400 ft | 252 kts | 38° |
| 2026-04-25 20:39 | 33.95456 | -117.94751 | 4323 ft | 245 kts | 17° |
| 2026-04-25 20:40 | 33.97591 | -117.94823 | 4095 ft | 228 kts | 334° |
| 2026-04-25 20:40 | 33.98814 | -117.95942 | 3731 ft | 219 kts | 302° |
| 2026-04-25 20:40 | 33.99376 | -117.97580 | 3600 ft | 210 kts | 274° |
| 2026-04-25 20:40 | 33.99316 | -117.99339 | 3596 ft | 209 kts | 260° |
| 2026-04-25 20:41 | 33.99141 | -118.01066 | 3598 ft | 212 kts | 261° |
| 2026-04-25 20:41 | 33.98961 | -118.02863 | 3602 ft | 212 kts | 261° |
| 2026-04-25 20:41 | 33.98786 | -118.04627 | 3598 ft | 213 kts | 261° |
| 2026-04-25 20:41 | 33.98610 | -118.06403 | 3598 ft | 212 kts | 260° |
| 2026-04-25 20:42 | 33.98436 | -118.08154 | 3597 ft | 215 kts | 260° |
| 2026-04-25 20:42 | 33.98257 | -118.09959 | 3595 ft | 218 kts | 261° |
| 2026-04-25 20:42 | 33.98077 | -118.11764 | 3595 ft | 215 kts | 259° |
| 2026-04-25 20:42 | 33.97898 | -118.13564 | 3598 ft | 216 kts | 260° |
| 2026-04-25 20:43 | 33.97717 | -118.15374 | 3603 ft | 218 kts | 261° |
| 2026-04-25 20:43 | 33.97538 | -118.17165 | 3608 ft | 211 kts | 259° |
| 2026-04-25 20:43 | 33.97363 | -118.18911 | 3546 ft | 209 kts | 259° |
| 2026-04-25 20:43 | 33.97191 | -118.20629 | 3346 ft | 206 kts | 259° |
| 2026-04-25 20:44 | 33.97020 | -118.22327 | 3113 ft | 201 kts | 259° |
| 2026-04-25 20:44 | 33.96855 | -118.23973 | 2829 ft | 194 kts | 259° |
| 2026-04-25 20:44 | 33.96697 | -118.25542 | 2568 ft | 185 kts | 260° |
| 2026-04-25 20:44 | 33.96547 | -118.27035 | 2329 ft | 174 kts | 259° |
| 2026-04-25 20:45 | 33.96404 | -118.28448 | 2098 ft | 164 kts | 259° |
| 2026-04-25 20:45 | 33.96274 | -118.29745 | 1910 ft | 148 kts | 259° |
| 2026-04-25 20:45 | 33.96153 | -118.30941 | 1702 ft | 139 kts | 257° |
| 2026-04-25 20:45 | 33.96040 | -118.32049 | 1513 ft | 132 kts | 257° |
| 2026-04-25 20:46 | 33.95928 | -118.33149 | 1343 ft | 132 kts | 258° |
| 2026-04-25 20:46 | 33.95815 | -118.34252 | 1167 ft | 131 kts | 259° |
| 2026-04-25 20:46 | 33.95705 | -118.35331 | 982 ft | 130 kts | 261° |
| 2026-04-25 20:46 | 33.95595 | -118.36412 | 802 ft | 128 kts | 258° |
| 2026-04-25 20:47 | 33.95485 | -118.37494 | 612 ft | 131 kts | 258° |
| 2026-04-25 20:47 | 33.95377 | -118.38556 | 440 ft | 127 kts | 257° |
| 2026-04-25 20:47 | 33.95270 | -118.39616 | 282 ft | 127 kts | 256° |
| 2026-04-25 20:47 | 33.95171 | -118.40665 | 106 ft | 119 kts | 256° |
| 2026-04-25 20:48 | 33.95074 | -118.41496 | 95 ft | 76 kts | 262° |
| 2026-04-25 20:48 | 33.95020 | -118.41975 | 93 ft | 39 kts | 259° |
| 2026-04-25 20:48 | 33.94929 | -118.42201 | 95 ft | 20 kts | 229° |
| 2026-04-25 20:48 | 33.94802 | -118.42276 | 96 ft | 26 kts | 184° |
| 2026-04-25 20:49 | 33.94645 | -118.42250 | 95 ft | 16 kts | 156° |
| 2026-04-25 20:49 | 33.94618 | -118.42126 | 95 ft | 17 kts | 85° |
| 2026-04-25 20:49 | 33.94629 | -118.41992 | 93 ft | 15 kts | 86° |
| 2026-04-25 20:49 | 33.94635 | -118.41835 | 93 ft | 22 kts | 84° |
| 2026-04-25 20:50 | 33.94654 | -118.41646 | 93 ft | 23 kts | 83° |
| 2026-04-25 20:50 | 33.94673 | -118.41458 | 93 ft | 19 kts | 82° |
| 2026-04-25 20:50 | 33.94690 | -118.41305 | 95 ft | 18 kts | 83° |
| 2026-04-25 20:50 | 33.94719 | -118.41167 | 95 ft | 16 kts | 74° |
| 2026-04-25 20:51 | 33.94736 | -118.41037 | 94 ft | 15 kts | 84° |
| 2026-04-25 20:51 | 33.94748 | -118.40920 | 95 ft | 10 kts | 82° |
| 2026-04-25 20:51 | 33.94760 | -118.40836 | 93 ft | 10 kts | 77° |
| 2026-04-25 20:51 | 33.94761 | -118.40815 | 94 ft | 0 kts | 107° |
| 2026-04-25 20:52 | 33.94749 | -118.40800 | 95 ft | 2 kts | 144° |
| 2026-04-25 20:52 | 33.94735 | -118.40793 | 93 ft | 5 kts | 160° |
| 2026-04-25 20:52 | 33.94705 | -118.40782 | 95 ft | 0 kts | 163° |